Boonsboro, MD

5:29 AM EDT on August 30, 2014 (GMT -0400)
Boonsboro Weather Station | Change Station
CLOSE
Current Station
Personal Weather Station
Location: Boonsboro, MD
Elevation: 520 ft
Nearby Weather Stations

Elev 520 ft 39.51 °N, 77.65 °W | Updated 11 minutes ago

Overcast
Overcast
64.1 °F
Feels Like 64.1 °F
N
6.3
Wind Variable Wind from SSE

Today
High -- | Low -- °F
--% Chance of Precip.
Yesterday
High -- | Low -- °F
Precip. -- in
6:37 AM 7:44 PM
Waxing Crescent, 20% visible
Pressure 30.22 in
Visibility 10.0 miles
Clouds Overcast 4400 ft
Dew Point 58 °F
Humidity 80%
Rainfall 0.00 in
Snow Depth Not available.
UV 0 out of 12
Pollen 9.70 out of 12
Air Quality Not available.
Flu Activity Not available.
METAR KHGR 300853Z AUTO 00000KT 10SM OVC044 19/14 A3020 RMK AO2 SLP231 T01890144 56008

More Conditions Fewer Conditions

Pressure 30.22 in
Visibility 10.0 miles
Clouds Overcast 4400 ft
Dew Point 58 °F
Humidity 80%
Rainfall 0.00 in
Snow Depth Not available.
UV 0 out of 12
Pollen 9.70 out of 12
Air Quality Not available.
Flu Activity Not available.
METAR KHGR 300853Z AUTO 00000KT 10SM OVC044 19/14 A3020 RMK AO2 SLP231 T01890144 56008

More Conditions Fewer Conditions

10-Day Weather Forecast

Almanac

Astronomy

Aug. 30, 2014 Rise Set
Actual Time 6:37 AM EDT 7:44 PM EDT
Civil Twilight 6:09 AM EDT 8:12 PM EDT
Nautical Twilight 5:36 AM EDT 8:45 PM EDT
Astronomical Twilight 5:01 AM EDT 9:19 PM EDT
Moon 11:21 AM EDT 10:19 PM EDT
Length of Visible Light 14h 03m
Length of Day
13h 07m
Tomorrow will be 2m 28s shorter.
Waxing Crescent, 20% of the Moon is Illuminated
Today
Waxing Crescent
Sep 2
First Quarter
Sep 8
Full
Sep 15
Last Quarter
Sep 24
New

Today's Extremes

State Highs State Lows

Community

WunderPhotos

Upload Photos

1,748,475 photos uploaded!

Nearby

Snow Depth

Station Depth Elevation
No new snow has been reported.

Earthquake Activity

City Distance Mag. Time & Date
No recent earthquake activity has been reported nearby.
Minimum magnitude displayed is 2.5.

Coastal Water Temperatures

Place Temperature
No Stations Reporting

Nearby Weather Stations